sensor_id;sensor_type;location;lat;lon;timestamp;temperature;humidity
612;DHT22;293;53.888;11.464;2023-06-01T00:01:45;13.60;99.90
612;DHT22;293;53.888;11.464;2023-06-01T00:04:12;13.60;99.90
612;DHT22;293;53.888;11.464;2023-06-01T00:06:39;13.60;99.90
612;DHT22;293;53.888;11.464;2023-06-01T00:09:06;13.60;99.90
612;DHT22;293;53.888;11.464;2023-06-01T00:11:35;13.70;99.90
612;DHT22;293;53.888;11.464;2023-06-01T00:14:02;13.70;99.90
612;DHT22;293;53.888;11.464;2023-06-01T00:16:29;13.70;99.90
612;DHT22;293;53.888;11.464;2023-06-01T00:18:56;13.60;99.90
612;DHT22;293;53.888;11.464;2023-06-01T00:21:26;13.60;99.90
612;DHT22;293;53.888;11.464;2023-06-01T00:23:53;13.60;99.90
612;DHT22;293;53.888;11.464;2023-06-01T00:26:20;13.60;99.90
612;DHT22;293;53.888;11.464;2023-06-01T00:28:49;13.50;99.90
612;DHT22;293;53.888;11.464;2023-06-01T00:31:16;13.60;99.90
612;DHT22;293;53.888;11.464;2023-06-01T00:33:43;13.60;99.90
612;DHT22;293;53.888;11.464;2023-06-01T00:36:09;13.60;99.90
612;DHT22;293;53.888;11.464;2023-06-01T00:38:36;13.50;99.90
612;DHT22;293;53.888;11.464;2023-06-01T00:41:03;13.60;99.90
612;DHT22;293;53.888;11.464;2023-06-01T00:45:59;13.40;99.90
612;DHT22;293;53.888;11.464;2023-06-01T00:48:26;13.30;99.90
612;DHT22;293;53.888;11.464;2023-06-01T00:50:53;13.30;99.90
612;DHT22;293;53.888;11.464;2023-06-01T00:53:22;13.30;99.90
612;DHT22;293;53.888;11.464;2023-06-01T00:55:50;13.20;99.90
612;DHT22;293;53.888;11.464;2023-06-01T00:58:17;13.10;99.90
612;DHT22;293;53.888;11.464;2023-06-01T01:00:44;13.20;99.90
612;DHT22;293;53.888;11.464;2023-06-01T01:03:15;13.20;99.90
612;DHT22;293;53.888;11.464;2023-06-01T01:05:43;13.20;99.90
612;DHT22;293;53.888;11.464;2023-06-01T01:08:13;13.10;99.90
612;DHT22;293;53.888;11.464;2023-06-01T01:10:52;13.10;99.90
612;DHT22;293;53.888;11.464;2023-06-01T01:13:23;13.10;99.90
612;DHT22;293;53.888;11.464;2023-06-01T01:15:58;13.00;99.90
612;DHT22;293;53.888;11.464;2023-06-01T01:18:33;13.00;99.90
612;DHT22;293;53.888;11.464;2023-06-01T01:21:04;13.00;99.90
612;DHT22;293;53.888;11.464;2023-06-01T01:24:15;13.00;99.90
612;DHT22;293;53.888;11.464;2023-06-01T01:27:01;13.00;99.90
612;DHT22;293;53.888;11.464;2023-06-01T01:29:33;13.00;99.90
612;DHT22;293;53.888;11.464;2023-06-01T01:32:03;13.00;99.90
612;DHT22;293;53.888;11.464;2023-06-01T01:34:31;12.90;99.90
612;DHT22;293;53.888;11.464;2023-06-01T01:36:59;13.00;99.90
612;DHT22;293;53.888;11.464;2023-06-01T01:39:26;12.90;99.90
612;DHT22;293;53.888;11.464;2023-06-01T01:41:53;12.90;99.90
612;DHT22;293;53.888;11.464;2023-06-01T01:44:20;12.90;99.90
612;DHT22;293;53.888;11.464;2023-06-01T01:46:52;13.00;99.90
612;DHT22;293;53.888;11.464;2023-06-01T01:49:27;12.90;99.90
612;DHT22;293;53.888;11.464;2023-06-01T01:52:01;12.90;99.90
612;DHT22;293;53.888;11.464;2023-06-01T01:54:33;12.90;99.90
612;DHT22;293;53.888;11.464;2023-06-01T01:57:04;12.90;99.90
612;DHT22;293;53.888;11.464;2023-06-01T01:59:32;12.90;99.90
612;DHT22;293;53.888;11.464;2023-06-01T02:02:00;12.90;99.90
612;DHT22;293;53.888;11.464;2023-06-01T02:04:28;12.90;99.90
612;DHT22;293;53.888;11.464;2023-06-01T02:06:55;12.80;99.90
612;DHT22;293;53.888;11.464;2023-06-01T02:09:22;12.80;99.90
612;DHT22;293;53.888;11.464;2023-06-01T02:11:49;12.80;99.90
612;DHT22;293;53.888;11.464;2023-06-01T02:14:16;12.80;99.90
612;DHT22;293;53.888;11.464;2023-06-01T02:16:43;12.90;99.90
612;DHT22;293;53.888;11.464;2023-06-01T02:19:12;12.80;99.90
612;DHT22;293;53.888;11.464;2023-06-01T02:21:41;12.80;99.90
612;DHT22;293;53.888;11.464;2023-06-01T02:24:08;12.80;99.90
612;DHT22;293;53.888;11.464;2023-06-01T02:26:35;12.70;99.90
612;DHT22;293;53.888;11.464;2023-06-01T02:29:02;12.80;99.90
612;DHT22;293;53.888;11.464;2023-06-01T02:31:30;12.80;99.90
612;DHT22;293;53.888;11.464;2023-06-01T02:33:57;12.80;99.90
612;DHT22;293;53.888;11.464;2023-06-01T02:36:26;12.80;99.90
612;DHT22;293;53.888;11.464;2023-06-01T02:38:54;12.70;99.90
612;DHT22;293;53.888;11.464;2023-06-01T02:41:21;12.70;99.90
612;DHT22;293;53.888;11.464;2023-06-01T02:43:48;12.70;99.90
612;DHT22;293;53.888;11.464;2023-06-01T02:46:16;12.60;99.90
612;DHT22;293;53.888;11.464;2023-06-01T02:48:43;12.60;99.90
612;DHT22;293;53.888;11.464;2023-06-01T02:51:09;12.60;99.90
612;DHT22;293;53.888;11.464;2023-06-01T02:53:39;12.60;99.90
612;DHT22;293;53.888;11.464;2023-06-01T02:56:06;12.60;99.90
612;DHT22;293;53.888;11.464;2023-06-01T02:58:33;12.50;99.90
612;DHT22;293;53.888;11.464;2023-06-01T03:01:00;12.40;99.90
612;DHT22;293;53.888;11.464;2023-06-01T03:03:27;12.40;99.90
612;DHT22;293;53.888;11.464;2023-06-01T03:05:54;12.40;99.90
612;DHT22;293;53.888;11.464;2023-06-01T03:08:22;12.40;99.90
612;DHT22;293;53.888;11.464;2023-06-01T03:10:52;12.40;99.90
612;DHT22;293;53.888;11.464;2023-06-01T03:13:18;12.40;99.90
612;DHT22;293;53.888;11.464;2023-06-01T03:15:45;12.40;99.90
612;DHT22;293;53.888;11.464;2023-06-01T03:18:12;12.50;99.90
612;DHT22;293;53.888;11.464;2023-06-01T03:20:39;12.40;99.90
612;DHT22;293;53.888;11.464;2023-06-01T03:23:06;12.50;99.90
612;DHT22;293;53.888;11.464;2023-06-01T03:28:01;12.50;99.90
612;DHT22;293;53.888;11.464;2023-06-01T03:30:28;12.60;99.90
612;DHT22;293;53.888;11.464;2023-06-01T03:32:56;12.70;99.90
612;DHT22;293;53.888;11.464;2023-06-01T03:35:23;12.60;99.90
612;DHT22;293;53.888;11.464;2023-06-01T03:37:50;12.60;99.90
612;DHT22;293;53.888;11.464;2023-06-01T03:40:17;12.70;99.90
612;DHT22;293;53.888;11.464;2023-06-01T03:42:45;12.70;99.90
612;DHT22;293;53.888;11.464;2023-06-01T03:45:14;12.60;99.90
612;DHT22;293;53.888;11.464;2023-06-01T03:47:42;12.60;99.90
612;DHT22;293;53.888;11.464;2023-06-01T03:50:10;12.60;99.90
612;DHT22;293;53.888;11.464;2023-06-01T03:52:37;12.60;99.90
612;DHT22;293;53.888;11.464;2023-06-01T03:55:05;12.60;99.90
612;DHT22;293;53.888;11.464;2023-06-01T04:00:03;12.70;99.90
612;DHT22;293;53.888;11.464;2023-06-01T04:07:42;12.70;99.90
612;DHT22;293;53.888;11.464;2023-06-01T04:10:10;12.70;99.90
612;DHT22;293;53.888;11.464;2023-06-01T04:12:39;12.70;99.90
612;DHT22;293;53.888;11.464;2023-06-01T04:15:08;12.70;99.90
612;DHT22;293;53.888;11.464;2023-06-01T04:17:36;12.80;99.90
612;DHT22;293;53.888;11.464;2023-06-01T04:20:07;12.80;99.90
612;DHT22;293;53.888;11.464;2023-06-01T04:27:33;12.80;99.90
612;DHT22;293;53.888;11.464;2023-06-01T04:30:02;12.80;99.90
612;DHT22;293;53.888;11.464;2023-06-01T04:32:31;12.70;99.90
612;DHT22;293;53.888;11.464;2023-06-01T04:34:58;12.70;99.90
612;DHT22;293;53.888;11.464;2023-06-01T04:37:26;12.70;99.90
612;DHT22;293;53.888;11.464;2023-06-01T04:39:53;12.80;99.90
612;DHT22;293;53.888;11.464;2023-06-01T04:42:22;12.80;99.90
612;DHT22;293;53.888;11.464;2023-06-01T04:44:49;12.80;99.90
612;DHT22;293;53.888;11.464;2023-06-01T04:47:17;12.70;99.90
612;DHT22;293;53.888;11.464;2023-06-01T04:49:46;12.80;99.90
612;DHT22;293;53.888;11.464;2023-06-01T04:52:13;12.90;99.90
612;DHT22;293;53.888;11.464;2023-06-01T04:54:41;12.90;99.90
612;DHT22;293;53.888;11.464;2023-06-01T04:57:09;13.30;99.90
612;DHT22;293;53.888;11.464;2023-06-01T05:02:04;12.90;99.90
612;DHT22;293;53.888;11.464;2023-06-01T05:04:31;13.00;99.90
612;DHT22;293;53.888;11.464;2023-06-01T05:09:26;13.10;99.90
612;DHT22;293;53.888;11.464;2023-06-01T05:11:54;13.10;99.90
612;DHT22;293;53.888;11.464;2023-06-01T05:14:21;13.30;99.90
612;DHT22;293;53.888;11.464;2023-06-01T05:16:48;13.40;99.90
612;DHT22;293;53.888;11.464;2023-06-01T05:19:15;13.40;99.90
612;DHT22;293;53.888;11.464;2023-06-01T05:21:42;13.30;99.90
612;DHT22;293;53.888;11.464;2023-06-01T05:24:09;13.40;99.90
612;DHT22;293;53.888;11.464;2023-06-01T05:26:36;13.50;99.90
612;DHT22;293;53.888;11.464;2023-06-01T05:29:04;13.50;99.90
612;DHT22;293;53.888;11.464;2023-06-01T05:31:31;13.60;99.90
612;DHT22;293;53.888;11.464;2023-06-01T05:33:58;13.60;99.90
612;DHT22;293;53.888;11.464;2023-06-01T05:36:25;13.70;99.90
612;DHT22;293;53.888;11.464;2023-06-01T05:38:52;13.40;99.90
612;DHT22;293;53.888;11.464;2023-06-01T05:41:19;13.60;99.90
612;DHT22;293;53.888;11.464;2023-06-01T05:43:46;13.70;99.90
612;DHT22;293;53.888;11.464;2023-06-01T05:46:14;13.60;99.90
612;DHT22;293;53.888;11.464;2023-06-01T05:48:41;13.60;99.90
612;DHT22;293;53.888;11.464;2023-06-01T05:51:08;13.70;99.90
612;DHT22;293;53.888;11.464;2023-06-01T05:53:35;13.70;99.90
612;DHT22;293;53.888;11.464;2023-06-01T05:56:02;14.00;99.90
612;DHT22;293;53.888;11.464;2023-06-01T05:58:29;13.90;99.90
612;DHT22;293;53.888;11.464;2023-06-01T06:00:56;14.00;99.90
612;DHT22;293;53.888;11.464;2023-06-01T06:03:24;14.00;99.90
612;DHT22;293;53.888;11.464;2023-06-01T06:05:51;14.10;99.90
612;DHT22;293;53.888;11.464;2023-06-01T06:08:18;14.00;99.90
612;DHT22;293;53.888;11.464;2023-06-01T06:10:46;14.00;99.90
612;DHT22;293;53.888;11.464;2023-06-01T06:18:08;13.90;99.90
612;DHT22;293;53.888;11.464;2023-06-01T06:20:36;13.90;99.90
612;DHT22;293;53.888;11.464;2023-06-01T06:23:03;13.90;99.90
612;DHT22;293;53.888;11.464;2023-06-01T06:25:30;14.00;99.90
612;DHT22;293;53.888;11.464;2023-06-01T06:27:57;14.10;99.90
612;DHT22;293;53.888;11.464;2023-06-01T06:30:24;14.10;99.90
612;DHT22;293;53.888;11.464;2023-06-01T06:32:51;14.10;99.90
612;DHT22;293;53.888;11.464;2023-06-01T06:35:18;14.30;99.90
612;DHT22;293;53.888;11.464;2023-06-01T06:37:46;14.20;99.90
612;DHT22;293;53.888;11.464;2023-06-01T06:40:13;14.40;99.90
612;DHT22;293;53.888;11.464;2023-06-01T06:42:40;13.30;99.90
612;DHT22;293;53.888;11.464;2023-06-01T06:45:08;14.30;99.90
612;DHT22;293;53.888;11.464;2023-06-01T06:50:03;14.40;99.90
612;DHT22;293;53.888;11.464;2023-06-01T06:54:59;14.40;99.90
612;DHT22;293;53.888;11.464;2023-06-01T06:57:26;14.40;99.90
612;DHT22;293;53.888;11.464;2023-06-01T06:59:53;14.40;99.90
612;DHT22;293;53.888;11.464;2023-06-01T07:02:20;14.60;99.90
612;DHT22;293;53.888;11.464;2023-06-01T07:04:47;14.60;99.90
612;DHT22;293;53.888;11.464;2023-06-01T07:07:14;14.70;99.90
612;DHT22;293;53.888;11.464;2023-06-01T07:09:41;14.80;99.90
612;DHT22;293;53.888;11.464;2023-06-01T07:12:09;14.80;99.90
612;DHT22;293;53.888;11.464;2023-06-01T07:14:36;14.80;99.90
612;DHT22;293;53.888;11.464;2023-06-01T07:17:03;15.00;99.90
612;DHT22;293;53.888;11.464;2023-06-01T07:19:31;15.10;99.90
612;DHT22;293;53.888;11.464;2023-06-01T07:21:59;15.30;99.90
612;DHT22;293;53.888;11.464;2023-06-01T07:24:26;15.30;99.90
612;DHT22;293;53.888;11.464;2023-06-01T07:26:53;15.30;99.90
612;DHT22;293;53.888;11.464;2023-06-01T07:29:22;15.30;99.90
612;DHT22;293;53.888;11.464;2023-06-01T07:31:50;15.10;99.90
612;DHT22;293;53.888;11.464;2023-06-01T07:34:17;15.20;99.90
612;DHT22;293;53.888;11.464;2023-06-01T07:36:45;15.30;99.90
612;DHT22;293;53.888;11.464;2023-06-01T07:39:12;15.40;99.90
612;DHT22;293;53.888;11.464;2023-06-01T07:41:40;15.60;99.90
612;DHT22;293;53.888;11.464;2023-06-01T07:44:08;15.60;99.90
612;DHT22;293;53.888;11.464;2023-06-01T07:46:36;15.70;99.90
612;DHT22;293;53.888;11.464;2023-06-01T07:49:03;15.60;99.90
612;DHT22;293;53.888;11.464;2023-06-01T07:51:30;15.60;99.90
612;DHT22;293;53.888;11.464;2023-06-01T07:53:57;15.70;99.90
612;DHT22;293;53.888;11.464;2023-06-01T07:56:25;15.70;99.90
612;DHT22;293;53.888;11.464;2023-06-01T07:58:54;15.80;99.90
612;DHT22;293;53.888;11.464;2023-06-01T08:01:21;15.80;99.90
612;DHT22;293;53.888;11.464;2023-06-01T08:03:49;15.90;99.90
612;DHT22;293;53.888;11.464;2023-06-01T08:06:17;16.10;99.90
612;DHT22;293;53.888;11.464;2023-06-01T08:08:44;16.20;99.90
612;DHT22;293;53.888;11.464;2023-06-01T08:11:14;16.20;99.90
612;DHT22;293;53.888;11.464;2023-06-01T08:13:41;16.00;99.90
612;DHT22;293;53.888;11.464;2023-06-01T08:16:11;16.10;99.90
612;DHT22;293;53.888;11.464;2023-06-01T08:18:38;17.00;99.90
612;DHT22;293;53.888;11.464;2023-06-01T08:21:06;16.30;99.90
612;DHT22;293;53.888;11.464;2023-06-01T08:23:34;16.20;99.90
612;DHT22;293;53.888;11.464;2023-06-01T08:26:01;16.10;99.90
612;DHT22;293;53.888;11.464;2023-06-01T08:28:28;16.30;99.90
612;DHT22;293;53.888;11.464;2023-06-01T08:30:55;16.60;99.90
612;DHT22;293;53.888;11.464;2023-06-01T08:33:22;16.70;99.90
612;DHT22;293;53.888;11.464;2023-06-01T08:35:49;17.90;99.90
612;DHT22;293;53.888;11.464;2023-06-01T08:38:18;17.00;99.90
612;DHT22;293;53.888;11.464;2023-06-01T08:40:45;17.10;99.90
612;DHT22;293;53.888;11.464;2023-06-01T08:43:17;17.20;99.90
612;DHT22;293;53.888;11.464;2023-06-01T08:45:45;17.30;99.90
612;DHT22;293;53.888;11.464;2023-06-01T08:48:16;17.40;99.90
612;DHT22;293;53.888;11.464;2023-06-01T08:50:44;17.50;99.90
612;DHT22;293;53.888;11.464;2023-06-01T08:53:14;17.50;99.90
612;DHT22;293;53.888;11.464;2023-06-01T08:55:45;17.60;99.90
612;DHT22;293;53.888;11.464;2023-06-01T08:58:12;17.80;99.90
612;DHT22;293;53.888;11.464;2023-06-01T09:00:41;18.00;99.90
612;DHT22;293;53.888;11.464;2023-06-01T09:03:08;18.30;99.90
612;DHT22;293;53.888;11.464;2023-06-01T09:05:35;18.30;99.90
612;DHT22;293;53.888;11.464;2023-06-01T09:08:02;18.30;99.90
612;DHT22;293;53.888;11.464;2023-06-01T09:10:30;18.50;99.90
612;DHT22;293;53.888;11.464;2023-06-01T09:15:29;18.00;97.90
612;DHT22;293;53.888;11.464;2023-06-01T09:18:05;18.00;95.60
612;DHT22;293;53.888;11.464;2023-06-01T09:20:32;18.00;99.90
612;DHT22;293;53.888;11.464;2023-06-01T09:23:00;18.00;96.70
612;DHT22;293;53.888;11.464;2023-06-01T09:25:28;18.20;95.40
612;DHT22;293;53.888;11.464;2023-06-01T09:30:39;18.60;93.90
612;DHT22;293;53.888;11.464;2023-06-01T09:33:09;18.60;99.50
612;DHT22;293;53.888;11.464;2023-06-01T09:35:41;18.90;99.90
612;DHT22;293;53.888;11.464;2023-06-01T09:38:09;18.90;98.90
612;DHT22;293;53.888;11.464;2023-06-01T09:40:37;18.90;99.00
612;DHT22;293;53.888;11.464;2023-06-01T09:43:18;18.80;98.70
612;DHT22;293;53.888;11.464;2023-06-01T09:46:03;18.70;97.80
612;DHT22;293;53.888;11.464;2023-06-01T09:48:31;18.60;98.10
612;DHT22;293;53.888;11.464;2023-06-01T09:50:58;18.40;98.50
612;DHT22;293;53.888;11.464;2023-06-01T09:53:25;18.50;99.90
612;DHT22;293;53.888;11.464;2023-06-01T09:55:59;18.10;99.90
612;DHT22;293;53.888;11.464;2023-06-01T09:58:28;18.40;99.90
612;DHT22;293;53.888;11.464;2023-06-01T10:00:57;18.40;99.90
612;DHT22;293;53.888;11.464;2023-06-01T10:03:27;18.60;99.90
612;DHT22;293;53.888;11.464;2023-06-01T10:05:54;18.60;99.90
612;DHT22;293;53.888;11.464;2023-06-01T10:08:21;18.90;99.10
612;DHT22;293;53.888;11.464;2023-06-01T10:10:48;19.20;98.10
612;DHT22;293;53.888;11.464;2023-06-01T10:13:15;19.20;98.30
612;DHT22;293;53.888;11.464;2023-06-01T10:15:44;19.10;99.90
612;DHT22;293;53.888;11.464;2023-06-01T10:18:11;19.30;99.40
612;DHT22;293;53.888;11.464;2023-06-01T10:20:38;19.40;99.80
612;DHT22;293;53.888;11.464;2023-06-01T10:23:06;19.30;98.70
612;DHT22;293;53.888;11.464;2023-06-01T10:25:37;19.30;98.00
612;DHT22;293;53.888;11.464;2023-06-01T10:28:10;19.40;97.10
612;DHT22;293;53.888;11.464;2023-06-01T10:30:37;19.10;95.80
612;DHT22;293;53.888;11.464;2023-06-01T10:33:06;18.80;95.90
612;DHT22;293;53.888;11.464;2023-06-01T10:36:00;18.50;96.60
612;DHT22;293;53.888;11.464;2023-06-01T10:38:28;18.40;97.40
612;DHT22;293;53.888;11.464;2023-06-01T10:41:25;18.60;97.70
612;DHT22;293;53.888;11.464;2023-06-01T10:43:54;18.60;96.50
612;DHT22;293;53.888;11.464;2023-06-01T10:46:40;18.60;96.80
612;DHT22;293;53.888;11.464;2023-06-01T10:49:09;18.50;96.60
612;DHT22;293;53.888;11.464;2023-06-01T10:51:37;18.20;96.70
612;DHT22;293;53.888;11.464;2023-06-01T10:57:23;17.70;97.10
612;DHT22;293;53.888;11.464;2023-06-01T11:00:12;17.90;97.90
612;DHT22;293;53.888;11.464;2023-06-01T11:02:44;18.00;97.50
612;DHT22;293;53.888;11.464;2023-06-01T11:08:51;18.10;97.90
612;DHT22;293;53.888;11.464;2023-06-01T11:11:19;17.90;98.60
612;DHT22;293;53.888;11.464;2023-06-01T11:14:08;18.10;98.90
612;DHT22;293;53.888;11.464;2023-06-01T11:16:37;18.20;98.60
612;DHT22;293;53.888;11.464;2023-06-01T11:19:05;18.50;99.20
612;DHT22;293;53.888;11.464;2023-06-01T11:21:34;18.80;98.20
612;DHT22;293;53.888;11.464;2023-06-01T11:24:07;19.00;97.70
612;DHT22;293;53.888;11.464;2023-06-01T11:26:40;19.20;97.20
612;DHT22;293;53.888;11.464;2023-06-01T11:29:09;19.20;97.70
612;DHT22;293;53.888;11.464;2023-06-01T11:31:39;19.00;97.20
612;DHT22;293;53.888;11.464;2023-06-01T11:34:08;18.90;97.50
612;DHT22;293;53.888;11.464;2023-06-01T11:36:40;18.90;99.40
612;DHT22;293;53.888;11.464;2023-06-01T11:39:18;18.90;97.70
612;DHT22;293;53.888;11.464;2023-06-01T11:41:47;18.90;98.10
612;DHT22;293;53.888;11.464;2023-06-01T11:44:14;18.90;97.30
612;DHT22;293;53.888;11.464;2023-06-01T11:46:55;18.90;97.60
612;DHT22;293;53.888;11.464;2023-06-01T11:49:23;18.90;97.30
612;DHT22;293;53.888;11.464;2023-06-01T11:51:50;18.80;97.60
612;DHT22;293;53.888;11.464;2023-06-01T11:54:23;18.80;98.10
612;DHT22;293;53.888;11.464;2023-06-01T11:56:52;18.70;98.20
612;DHT22;293;53.888;11.464;2023-06-01T11:59:19;18.70;98.10
612;DHT22;293;53.888;11.464;2023-06-01T12:01:48;18.80;97.70
612;DHT22;293;53.888;11.464;2023-06-01T12:04:18;18.80;97.40
612;DHT22;293;53.888;11.464;2023-06-01T12:06:45;18.80;97.70
612;DHT22;293;53.888;11.464;2023-06-01T12:09:12;18.70;98.00
612;DHT22;293;53.888;11.464;2023-06-01T12:11:42;18.80;97.50
612;DHT22;293;53.888;11.464;2023-06-01T12:14:10;18.80;97.20
612;DHT22;293;53.888;11.464;2023-06-01T12:16:53;18.90;96.90
612;DHT22;293;53.888;11.464;2023-06-01T12:19:21;18.90;97.10
612;DHT22;293;53.888;11.464;2023-06-01T12:21:48;19.00;97.70
612;DHT22;293;53.888;11.464;2023-06-01T12:24:17;19.20;97.50
612;DHT22;293;53.888;11.464;2023-06-01T12:26:45;19.30;97.60
612;DHT22;293;53.888;11.464;2023-06-01T12:29:12;19.20;97.10
612;DHT22;293;53.888;11.464;2023-06-01T12:31:51;19.30;97.90
612;DHT22;293;53.888;11.464;2023-06-01T12:34:19;19.00;96.70
612;DHT22;293;53.888;11.464;2023-06-01T12:36:46;19.40;96.80
612;DHT22;293;53.888;11.464;2023-06-01T12:39:13;19.30;96.30
612;DHT22;293;53.888;11.464;2023-06-01T12:41:48;19.40;96.30
612;DHT22;293;53.888;11.464;2023-06-01T12:44:20;19.20;96.40
612;DHT22;293;53.888;11.464;2023-06-01T12:46:47;19.30;96.70
612;DHT22;293;53.888;11.464;2023-06-01T12:49:22;19.40;97.10
612;DHT22;293;53.888;11.464;2023-06-01T12:51:49;19.20;95.90
612;DHT22;293;53.888;11.464;2023-06-01T12:54:16;19.30;96.20
612;DHT22;293;53.888;11.464;2023-06-01T12:56:44;19.30;96.50
612;DHT22;293;53.888;11.464;2023-06-01T12:59:12;19.30;95.80
612;DHT22;293;53.888;11.464;2023-06-01T13:01:39;19.20;95.50
612;DHT22;293;53.888;11.464;2023-06-01T13:04:06;19.10;95.90
612;DHT22;293;53.888;11.464;2023-06-01T13:06:33;18.90;96.00
612;DHT22;293;53.888;11.464;2023-06-01T13:09:01;19.00;94.80
612;DHT22;293;53.888;11.464;2023-06-01T13:11:28;18.90;95.10
612;DHT22;293;53.888;11.464;2023-06-01T13:13:55;19.00;95.80
612;DHT22;293;53.888;11.464;2023-06-01T13:16:24;19.00;95.40
612;DHT22;293;53.888;11.464;2023-06-01T13:18:50;19.00;95.00
612;DHT22;293;53.888;11.464;2023-06-01T13:21:17;19.00;95.30
612;DHT22;293;53.888;11.464;2023-06-01T13:23:44;19.00;95.50
612;DHT22;293;53.888;11.464;2023-06-01T13:26:11;18.90;95.90
612;DHT22;293;53.888;11.464;2023-06-01T13:28:40;19.20;95.20
612;DHT22;293;53.888;11.464;2023-06-01T13:31:07;19.10;94.60
612;DHT22;293;53.888;11.464;2023-06-01T13:33:36;19.20;95.40
612;DHT22;293;53.888;11.464;2023-06-01T13:36:03;19.30;95.60
612;DHT22;293;53.888;11.464;2023-06-01T13:38:30;19.30;94.90
612;DHT22;293;53.888;11.464;2023-06-01T13:40:57;19.30;95.00
612;DHT22;293;53.888;11.464;2023-06-01T13:43:24;19.20;94.60
612;DHT22;293;53.888;11.464;2023-06-01T13:45:51;19.20;95.60
612;DHT22;293;53.888;11.464;2023-06-01T13:48:18;19.20;95.60
612;DHT22;293;53.888;11.464;2023-06-01T13:50:47;19.30;94.70
612;DHT22;293;53.888;11.464;2023-06-01T13:53:14;19.30;94.40
612;DHT22;293;53.888;11.464;2023-06-01T13:55:41;19.30;95.40
612;DHT22;293;53.888;11.464;2023-06-01T13:58:08;19.20;95.20
612;DHT22;293;53.888;11.464;2023-06-01T14:00:35;19.10;95.20
612;DHT22;293;53.888;11.464;2023-06-01T14:03:02;19.20;95.50
612;DHT22;293;53.888;11.464;2023-06-01T14:05:29;19.20;95.00
612;DHT22;293;53.888;11.464;2023-06-01T14:07:57;19.10;95.20
612;DHT22;293;53.888;11.464;2023-06-01T14:10:24;19.10;95.30
612;DHT22;293;53.888;11.464;2023-06-01T14:12:51;19.20;95.10
612;DHT22;293;53.888;11.464;2023-06-01T14:15:17;19.20;95.00
612;DHT22;293;53.888;11.464;2023-06-01T14:17:44;19.30;95.00
612;DHT22;293;53.888;11.464;2023-06-01T14:20:11;19.20;94.90
612;DHT22;293;53.888;11.464;2023-06-01T14:22:38;19.30;95.00
612;DHT22;293;53.888;11.464;2023-06-01T14:25:07;19.30;95.30
612;DHT22;293;53.888;11.464;2023-06-01T14:27:35;19.40;95.10
612;DHT22;293;53.888;11.464;2023-06-01T14:30:03;19.40;94.90
612;DHT22;293;53.888;11.464;2023-06-01T14:32:30;19.50;94.60
612;DHT22;293;53.888;11.464;2023-06-01T14:34:57;19.40;94.90
612;DHT22;293;53.888;11.464;2023-06-01T14:37:24;19.40;96.80
612;DHT22;293;53.888;11.464;2023-06-01T14:39:51;19.40;97.70
612;DHT22;293;53.888;11.464;2023-06-01T14:42:19;19.30;97.70
612;DHT22;293;53.888;11.464;2023-06-01T14:44:46;19.20;99.00
612;DHT22;293;53.888;11.464;2023-06-01T14:47:13;19.00;99.00
612;DHT22;293;53.888;11.464;2023-06-01T14:49:40;18.80;99.50
612;DHT22;293;53.888;11.464;2023-06-01T14:52:07;18.70;99.90
612;DHT22;293;53.888;11.464;2023-06-01T14:54:34;18.70;99.90
612;DHT22;293;53.888;11.464;2023-06-01T14:57:01;18.50;99.20
612;DHT22;293;53.888;11.464;2023-06-01T14:59:30;18.50;99.80
612;DHT22;293;53.888;11.464;2023-06-01T15:01:58;18.40;99.90
612;DHT22;293;53.888;11.464;2023-06-01T15:04:27;18.40;99.90
612;DHT22;293;53.888;11.464;2023-06-01T15:06:53;18.40;99.90
612;DHT22;293;53.888;11.464;2023-06-01T15:09:20;18.30;99.90
612;DHT22;293;53.888;11.464;2023-06-01T15:11:47;18.30;99.90
612;DHT22;293;53.888;11.464;2023-06-01T15:14:14;18.20;99.90
612;DHT22;293;53.888;11.464;2023-06-01T15:16:42;18.10;99.90
612;DHT22;293;53.888;11.464;2023-06-01T15:19:09;18.30;99.90
612;DHT22;293;53.888;11.464;2023-06-01T15:21:36;18.10;99.90
612;DHT22;293;53.888;11.464;2023-06-01T15:24:03;18.10;99.90
612;DHT22;293;53.888;11.464;2023-06-01T15:26:31;18.10;99.90
612;DHT22;293;53.888;11.464;2023-06-01T15:28:58;18.20;99.90
612;DHT22;293;53.888;11.464;2023-06-01T15:31:25;18.30;99.90
612;DHT22;293;53.888;11.464;2023-06-01T15:33:53;18.40;99.90
612;DHT22;293;53.888;11.464;2023-06-01T15:36:20;18.40;99.90
612;DHT22;293;53.888;11.464;2023-06-01T15:38:47;18.50;99.80
612;DHT22;293;53.888;11.464;2023-06-01T15:41:14;18.50;99.90
612;DHT22;293;53.888;11.464;2023-06-01T15:43:40;18.50;99.90
612;DHT22;293;53.888;11.464;2023-06-01T15:46:07;18.50;99.90
612;DHT22;293;53.888;11.464;2023-06-01T15:48:34;18.40;99.30
612;DHT22;293;53.888;11.464;2023-06-01T15:51:06;18.30;99.90
612;DHT22;293;53.888;11.464;2023-06-01T15:53:33;18.20;99.90
612;DHT22;293;53.888;11.464;2023-06-01T15:56:00;18.20;99.90
612;DHT22;293;53.888;11.464;2023-06-01T15:58:27;18.20;99.90
612;DHT22;293;53.888;11.464;2023-06-01T16:00:53;18.00;99.90
612;DHT22;293;53.888;11.464;2023-06-01T16:03:20;17.90;99.90
612;DHT22;293;53.888;11.464;2023-06-01T16:05:48;17.90;99.90
612;DHT22;293;53.888;11.464;2023-06-01T16:08:16;17.80;99.90
612;DHT22;293;53.888;11.464;2023-06-01T16:10:44;17.90;99.90
612;DHT22;293;53.888;11.464;2023-06-01T16:13:11;17.90;99.90
612;DHT22;293;53.888;11.464;2023-06-01T16:15:37;17.90;99.90
612;DHT22;293;53.888;11.464;2023-06-01T16:18:04;18.00;99.90
612;DHT22;293;53.888;11.464;2023-06-01T16:20:32;18.00;99.90
612;DHT22;293;53.888;11.464;2023-06-01T16:22:58;17.90;99.90
612;DHT22;293;53.888;11.464;2023-06-01T16:25:27;17.90;99.90
612;DHT22;293;53.888;11.464;2023-06-01T16:27:56;17.90;99.90
612;DHT22;293;53.888;11.464;2023-06-01T16:30:22;17.90;99.90
612;DHT22;293;53.888;11.464;2023-06-01T16:32:49;17.90;99.90
612;DHT22;293;53.888;11.464;2023-06-01T16:35:16;17.90;99.90
612;DHT22;293;53.888;11.464;2023-06-01T16:37:43;17.90;99.90
612;DHT22;293;53.888;11.464;2023-06-01T16:40:11;17.90;99.90
612;DHT22;293;53.888;11.464;2023-06-01T16:42:39;17.80;99.90
612;DHT22;293;53.888;11.464;2023-06-01T16:45:06;17.80;99.90
612;DHT22;293;53.888;11.464;2023-06-01T16:47:33;17.80;99.90
612;DHT22;293;53.888;11.464;2023-06-01T16:50:00;17.70;99.90
612;DHT22;293;53.888;11.464;2023-06-01T16:52:27;17.70;99.90
612;DHT22;293;53.888;11.464;2023-06-01T16:54:55;17.80;99.90
612;DHT22;293;53.888;11.464;2023-06-01T16:57:22;17.80;99.90
612;DHT22;293;53.888;11.464;2023-06-01T16:59:52;17.70;99.90
612;DHT22;293;53.888;11.464;2023-06-01T17:02:18;17.70;99.90
612;DHT22;293;53.888;11.464;2023-06-01T17:04:45;17.70;99.90
612;DHT22;293;53.888;11.464;2023-06-01T17:07:12;17.70;99.90
612;DHT22;293;53.888;11.464;2023-06-01T17:09:39;17.70;99.90